createdAt,value
2022-11-01T00:01:40.925Z,3.33
2022-11-01T00:04:09.796Z,3.03
2022-11-01T00:06:38.219Z,3.47
2022-11-01T00:09:06.375Z,3.43
2022-11-01T00:11:34.317Z,3.20
2022-11-01T00:14:03.785Z,3.25
2022-11-01T00:16:31.742Z,3.63
2022-11-01T00:18:59.769Z,3.35
2022-11-01T00:21:27.837Z,3.53
2022-11-01T00:23:55.717Z,3.35
2022-11-01T00:26:24.943Z,3.35
2022-11-01T00:28:54.049Z,3.10
2022-11-01T00:31:23.606Z,3.22
2022-11-01T00:33:51.626Z,2.85
2022-11-01T00:36:19.736Z,3.50
2022-11-01T00:38:50.766Z,3.47
2022-11-01T00:41:20.672Z,3.50
2022-11-01T00:43:48.653Z,3.13
2022-11-01T00:46:16.963Z,3.50
2022-11-01T00:48:46.397Z,3.57
2022-11-01T00:51:14.224Z,3.40
2022-11-01T00:53:42.119Z,3.75
2022-11-01T00:56:10.331Z,3.20
2022-11-01T00:58:38.175Z,3.72
2022-11-01T01:01:06.351Z,3.45
2022-11-01T01:03:34.252Z,3.60
2022-11-01T01:06:03.907Z,3.42
2022-11-01T01:08:31.840Z,3.50
2022-11-01T01:10:59.744Z,3.38
2022-11-01T01:13:27.600Z,3.00
2022-11-01T01:15:56.027Z,3.33
2022-11-01T01:18:24.157Z,3.20
2022-11-01T01:20:52.059Z,4.05
2022-11-01T01:23:21.438Z,3.33
2022-11-01T01:25:49.288Z,3.70
2022-11-01T01:28:17.134Z,4.43
2022-11-01T01:30:45.055Z,2.88
2022-11-01T01:35:45.833Z,3.40
2022-11-01T01:38:13.691Z,3.60
2022-11-01T01:40:43.074Z,3.58
2022-11-01T01:43:12.491Z,3.40
2022-11-01T01:45:41.957Z,3.50
2022-11-01T01:48:14.357Z,3.97
2022-11-01T01:50:47.445Z,3.10
2022-11-01T01:53:19.021Z,3.40
2022-11-01T01:55:52.203Z,3.70
2022-11-01T01:58:23.438Z,3.72
2022-11-01T02:00:51.956Z,3.67
2022-11-01T02:03:19.990Z,3.63
2022-11-01T02:05:51.585Z,3.50
2022-11-01T02:08:27.626Z,3.83
2022-11-01T02:10:59.360Z,3.80
2022-11-01T02:13:27.420Z,3.67
2022-11-01T02:16:05.160Z,3.75
2022-11-01T02:18:37.372Z,4.03
2022-11-01T02:21:47.505Z,3.83
2022-11-01T02:24:51.047Z,3.97
2022-11-01T02:27:24.710Z,3.55
2022-11-01T02:30:05.574Z,4.00
2022-11-01T02:32:39.548Z,3.80
2022-11-01T02:35:13.905Z,3.80
2022-11-01T02:37:48.350Z,3.53
2022-11-01T02:40:18.516Z,4.00
2022-11-01T02:42:49.661Z,3.72
2022-11-01T02:45:29.035Z,4.10
2022-11-01T02:48:00.383Z,3.40
2022-11-01T02:50:29.668Z,3.80
2022-11-01T02:52:57.673Z,3.50
2022-11-01T02:55:30.748Z,4.18
2022-11-01T02:58:00.986Z,3.65
2022-11-01T03:00:31.073Z,3.67
2022-11-01T03:03:07.196Z,3.70
2022-11-01T03:05:42.566Z,3.83
2022-11-01T03:08:11.639Z,3.53
2022-11-01T03:10:47.141Z,3.35
2022-11-01T03:13:29.003Z,3.50
2022-11-01T03:16:06.823Z,3.80
2022-11-01T03:18:37.199Z,3.20
2022-11-01T03:21:15.787Z,3.40
2022-11-01T03:23:50.632Z,3.50
2022-11-01T03:26:25.952Z,3.28
2022-11-01T03:28:57.409Z,3.60
2022-11-01T03:31:29.212Z,3.33
2022-11-01T03:34:04.113Z,3.78
2022-11-01T03:36:34.264Z,3.67
2022-11-01T03:39:05.797Z,3.20
2022-11-01T03:41:36.077Z,3.65
2022-11-01T03:44:04.401Z,3.30
2022-11-01T03:46:32.846Z,3.50
2022-11-01T03:49:02.079Z,3.40
2022-11-01T03:51:30.531Z,3.20
2022-11-01T03:53:58.634Z,3.30
2022-11-01T03:56:27.010Z,3.50
2022-11-01T03:58:55.081Z,3.05
2022-11-01T04:01:23.018Z,3.38
2022-11-01T04:03:51.017Z,3.60
2022-11-01T04:06:20.574Z,3.33
2022-11-01T04:08:49.344Z,3.28
2022-11-01T04:11:17.299Z,3.35
2022-11-01T04:13:45.351Z,3.33
2022-11-01T04:16:30.848Z,3.38
2022-11-01T04:19:16.551Z,3.13
2022-11-01T04:21:46.053Z,3.70
2022-11-01T04:24:21.068Z,3.20
2022-11-01T04:26:49.301Z,3.20
2022-11-01T04:29:17.196Z,3.40
2022-11-01T04:31:45.086Z,3.70
2022-11-01T04:34:12.942Z,3.40
2022-11-01T04:36:40.808Z,3.50
2022-11-01T04:39:11.178Z,3.35
2022-11-01T04:41:39.170Z,3.40
2022-11-01T04:44:07.184Z,3.20
2022-11-01T04:46:35.087Z,3.10
2022-11-01T04:49:02.970Z,3.47
2022-11-01T04:51:30.905Z,3.33
2022-11-01T04:53:58.831Z,3.43
2022-11-01T04:56:28.140Z,3.50
2022-11-01T04:58:56.027Z,3.35
2022-11-01T05:01:23.950Z,3.00
2022-11-01T05:03:51.891Z,2.83
2022-11-01T05:06:19.880Z,3.30
2022-11-01T05:08:47.740Z,3.00
2022-11-01T05:11:15.616Z,2.92
2022-11-01T05:13:44.728Z,3.20
2022-11-01T05:16:20.630Z,3.00
2022-11-01T05:18:49.439Z,2.85
2022-11-01T05:21:17.448Z,3.10
2022-11-01T05:23:45.274Z,3.28
2022-11-01T05:26:13.111Z,3.00
2022-11-01T05:28:41.065Z,3.00
2022-11-01T05:31:10.887Z,3.10
2022-11-01T05:33:38.760Z,3.10
2022-11-01T05:36:07.469Z,3.20
2022-11-01T05:38:35.354Z,2.95
2022-11-01T05:41:03.791Z,2.95
2022-11-01T05:43:31.827Z,3.20
2022-11-01T05:45:59.871Z,3.05
2022-11-01T05:48:29.305Z,3.00
2022-11-01T05:50:57.187Z,3.10
2022-11-01T05:53:25.032Z,3.28
2022-11-01T05:55:55.163Z,3.10
2022-11-01T05:58:26.517Z,2.97
2022-11-01T06:00:58.821Z,3.17
2022-11-01T06:03:26.700Z,3.03
2022-11-01T06:05:55.909Z,3.28
2022-11-01T06:08:23.785Z,3.40
2022-11-01T06:10:51.928Z,3.00
2022-11-01T06:13:20.189Z,3.03
2022-11-01T06:15:48.062Z,2.75
2022-11-01T06:18:15.930Z,3.15
2022-11-01T06:20:43.771Z,2.80
2022-11-01T06:23:13.052Z,3.08
2022-11-01T06:25:40.902Z,2.95
2022-11-01T06:28:09.330Z,2.85
2022-11-01T06:30:38.986Z,3.13
2022-11-01T06:33:09.422Z,2.72
2022-11-01T06:35:37.572Z,2.78
2022-11-01T06:38:06.809Z,2.80
2022-11-01T06:40:36.582Z,2.90
2022-11-01T06:43:06.432Z,2.80
2022-11-01T06:45:34.518Z,2.92
2022-11-01T06:48:02.688Z,2.72
2022-11-01T06:50:31.263Z,2.93
2022-11-01T06:52:59.370Z,2.90
2022-11-01T06:55:27.291Z,2.90
2022-11-01T06:57:57.331Z,2.92
2022-11-01T07:00:25.906Z,2.70
2022-11-01T07:02:59.938Z,2.80
2022-11-01T07:05:30.433Z,2.70
2022-11-01T07:08:02.715Z,2.38
2022-11-01T07:10:31.000Z,2.33
2022-11-01T07:13:01.161Z,2.30
2022-11-01T07:15:29.607Z,2.50
2022-11-01T07:17:57.924Z,2.00
2022-11-01T07:20:26.344Z,2.03
2022-11-01T07:23:01.073Z,2.08
2022-11-01T07:25:30.357Z,1.90
2022-11-01T07:27:59.913Z,1.70
2022-11-01T07:30:28.918Z,1.63
2022-11-01T07:32:57.279Z,1.60
2022-11-01T07:35:25.533Z,1.55
2022-11-01T07:37:53.456Z,1.20
2022-11-01T07:40:27.437Z,1.65
2022-11-01T07:42:56.858Z,1.60
2022-11-01T07:45:26.748Z,1.40
2022-11-01T07:47:54.965Z,1.40
2022-11-01T07:50:22.836Z,1.40
2022-11-01T07:53:00.352Z,1.15
2022-11-01T07:55:28.392Z,1.10
2022-11-01T07:57:56.279Z,1.10
2022-11-01T08:00:26.255Z,1.13
2022-11-01T08:02:54.220Z,0.90
2022-11-01T08:05:22.167Z,1.03
2022-11-01T08:07:49.990Z,1.10
2022-11-01T08:10:18.076Z,0.93
2022-11-01T08:12:45.947Z,1.00
2022-11-01T08:15:13.852Z,0.90
2022-11-01T08:17:43.127Z,1.10
2022-11-01T08:20:12.487Z,1.48
2022-11-01T08:22:41.346Z,0.93
2022-11-01T08:25:09.897Z,0.90
2022-11-01T08:27:38.046Z,0.90
2022-11-01T08:30:06.947Z,0.70
2022-11-01T08:32:34.765Z,0.73
2022-11-01T08:35:04.452Z,0.70
2022-11-01T08:37:32.466Z,0.80
2022-11-01T08:40:00.441Z,0.70
2022-11-01T08:42:28.518Z,0.80
2022-11-01T08:44:56.413Z,0.85
2022-11-01T08:47:24.720Z,0.90
2022-11-01T08:49:52.678Z,0.80
2022-11-01T08:52:21.948Z,1.00
2022-11-01T08:54:49.747Z,0.80
2022-11-01T08:57:17.611Z,0.90
2022-11-01T08:59:45.531Z,1.00
2022-11-01T09:02:13.574Z,0.98
2022-11-01T09:04:41.567Z,0.85
2022-11-01T09:07:09.398Z,0.90
2022-11-01T09:09:38.660Z,0.75
2022-11-01T09:12:10.945Z,1.00
2022-11-01T09:14:41.919Z,1.13
2022-11-01T09:17:09.861Z,1.10
2022-11-01T09:19:37.987Z,0.82
2022-11-01T09:22:05.778Z,1.10
2022-11-01T09:24:33.722Z,0.90
2022-11-01T09:27:03.066Z,1.30
2022-11-01T09:29:31.007Z,1.20
2022-11-01T09:31:59.005Z,1.20
2022-11-01T09:34:27.015Z,1.15
2022-11-01T09:36:54.844Z,1.10
2022-11-01T09:39:23.028Z,1.23
2022-11-01T09:41:52.863Z,1.50
2022-11-01T09:44:26.908Z,1.48
2022-11-01T09:47:01.425Z,1.50
2022-11-01T09:49:32.437Z,1.80
2022-11-01T09:52:00.672Z,2.20
2022-11-01T09:54:29.400Z,1.90
2022-11-01T09:57:04.906Z,1.90
2022-11-01T09:59:37.048Z,2.30
2022-11-01T10:02:25.729Z,2.28
2022-11-01T10:05:06.470Z,2.22
2022-11-01T10:07:42.724Z,2.00
2022-11-01T10:10:20.797Z,2.13
2022-11-01T10:12:56.641Z,2.00
2022-11-01T10:15:37.798Z,1.83
2022-11-01T10:18:16.042Z,2.15
2022-11-01T10:20:44.208Z,2.58
2022-11-01T10:23:13.812Z,1.80
2022-11-01T10:25:44.563Z,1.77
2022-11-01T10:28:17.058Z,2.20
2022-11-01T10:30:49.306Z,2.13
2022-11-01T10:33:25.795Z,1.90
2022-11-01T10:35:57.334Z,1.77
2022-11-01T10:38:59.516Z,2.00
2022-11-01T10:41:28.576Z,1.80
2022-11-01T10:43:58.123Z,2.10
2022-11-01T10:46:30.507Z,2.20
2022-11-01T10:49:01.310Z,2.22
2022-11-01T10:51:30.832Z,2.20
2022-11-01T10:54:02.357Z,2.05
2022-11-01T10:56:34.556Z,2.08
2022-11-01T10:59:04.239Z,1.65
2022-11-01T11:01:42.539Z,2.10
2022-11-01T11:04:12.912Z,2.10
2022-11-01T11:06:42.331Z,2.00
2022-11-01T11:09:20.421Z,2.03
2022-11-01T11:11:49.369Z,2.20
2022-11-01T11:14:17.521Z,3.13
2022-11-01T11:16:48.594Z,3.30
2022-11-01T11:19:20.012Z,4.60
2022-11-01T11:21:49.698Z,2.03
2022-11-01T11:24:19.772Z,2.17
2022-11-01T11:26:53.103Z,2.45
2022-11-01T11:29:37.820Z,3.13
2022-11-01T11:32:09.460Z,2.83
2022-11-01T11:34:38.285Z,2.30
2022-11-01T11:37:08.490Z,2.23
2022-11-01T11:39:37.677Z,1.80
2022-11-01T11:42:15.308Z,1.75
2022-11-01T11:44:45.457Z,1.75
2022-11-01T11:47:24.389Z,1.77
2022-11-01T11:49:54.063Z,1.77
2022-11-01T11:52:28.231Z,1.77
2022-11-01T11:54:56.578Z,1.90
2022-11-01T11:57:26.868Z,2.08
2022-11-01T11:59:56.725Z,1.92
2022-11-01T12:02:28.574Z,1.60
2022-11-01T12:04:58.306Z,2.00
2022-11-01T12:07:29.108Z,1.98
2022-11-01T12:09:57.856Z,2.00
2022-11-01T12:12:27.587Z,1.65
2022-11-01T12:14:56.001Z,1.65
2022-11-01T12:17:31.308Z,1.77
2022-11-01T12:20:10.974Z,1.80
2022-11-01T12:22:40.878Z,1.80
2022-11-01T12:25:14.066Z,1.58
2022-11-01T14:46:18.862Z,2.05
2022-11-01T14:48:50.178Z,1.80
2022-11-01T14:51:22.212Z,1.43
2022-11-01T14:53:53.961Z,1.45
2022-11-01T14:56:23.445Z,1.50
2022-11-01T14:58:51.322Z,1.60
2022-11-01T15:01:23.355Z,1.60
2022-11-01T15:03:55.173Z,1.45
2022-11-01T15:06:24.584Z,1.75
2022-11-01T15:08:52.574Z,1.58
2022-11-01T15:11:20.664Z,1.52
2022-11-01T15:18:48.802Z,1.80
2022-11-01T15:21:21.173Z,1.50
2022-11-01T15:23:51.655Z,1.50
2022-11-01T15:26:21.940Z,1.50
2022-11-01T15:28:52.338Z,1.58
2022-11-01T15:31:20.429Z,1.73
2022-11-01T15:33:55.648Z,1.60
2022-11-01T15:36:24.817Z,1.60
2022-11-01T15:38:54.599Z,1.85
2022-11-01T15:41:27.176Z,1.48
2022-11-01T15:43:55.704Z,2.25
2022-11-01T15:53:49.342Z,1.50
2022-11-01T15:56:20.145Z,2.15
2022-11-01T16:03:48.348Z,1.63
2022-11-01T16:13:49.428Z,1.27
2022-11-01T16:16:17.352Z,1.90
2022-11-01T16:18:46.129Z,2.03
2022-11-01T16:21:28.848Z,2.53
2022-11-01T16:24:05.331Z,2.03
2022-11-01T16:26:52.970Z,1.95
2022-11-01T16:29:38.723Z,1.50
2022-11-01T16:32:09.843Z,1.67
2022-11-01T16:34:37.929Z,1.60
2022-11-01T16:37:14.815Z,1.55
2022-11-01T16:39:45.040Z,1.55
2022-11-01T16:42:13.046Z,2.00
2022-11-01T16:44:41.149Z,1.57
2022-11-01T16:47:11.204Z,1.63
2022-11-01T16:49:46.698Z,1.67
2022-11-01T16:52:14.527Z,1.52
2022-11-01T16:54:42.960Z,1.38
2022-11-01T16:57:21.971Z,1.90
2022-11-01T16:59:51.037Z,1.70
2022-11-01T17:02:21.154Z,1.80
2022-11-01T17:04:50.819Z,2.08
2022-11-01T17:07:18.612Z,1.73
2022-11-01T17:09:46.896Z,1.88
2022-11-01T17:12:14.700Z,1.60
2022-11-01T17:14:44.799Z,1.90
2022-11-01T17:17:17.389Z,1.77
2022-11-01T17:19:47.577Z,2.13
2022-11-01T17:22:17.809Z,1.73
2022-11-01T17:24:45.934Z,1.70
2022-11-01T17:27:13.850Z,1.92
2022-11-01T17:29:43.075Z,1.57
2022-11-01T17:32:11.463Z,2.00
2022-11-01T17:34:39.487Z,1.52
2022-11-01T17:37:07.425Z,1.73
2022-11-01T17:39:35.263Z,1.58
2022-11-01T17:42:03.023Z,1.80
2022-11-01T17:44:30.981Z,1.63
2022-11-01T17:47:00.449Z,1.65
2022-11-01T17:49:28.221Z,1.30
2022-11-01T17:51:56.213Z,1.83
2022-11-01T17:56:56.880Z,2.00
2022-11-01T17:59:24.624Z,1.77
2022-11-01T18:01:52.557Z,1.77
2022-11-01T18:04:21.684Z,1.70
2022-11-01T18:06:49.469Z,1.70
2022-11-01T18:09:20.940Z,2.10
2022-11-01T18:11:53.679Z,1.88
2022-11-01T18:14:27.387Z,1.75
2022-11-01T18:16:59.716Z,1.98
2022-11-01T18:19:41.375Z,3.15
2022-11-01T18:22:15.872Z,2.45
2022-11-01T18:24:47.542Z,5.82
2022-11-01T18:27:19.384Z,3.10
2022-11-01T18:29:51.153Z,3.20
2022-11-01T18:32:24.576Z,2.47
2022-11-01T18:34:58.379Z,2.53
2022-11-01T18:37:30.456Z,2.30
2022-11-01T18:40:03.152Z,2.25
2022-11-01T18:42:31.727Z,2.10
2022-11-01T18:45:01.201Z,2.30
2022-11-01T18:47:34.787Z,2.05
2022-11-01T18:50:09.052Z,2.03
2022-11-01T18:52:38.396Z,1.88
2022-11-01T18:55:13.625Z,1.70
2022-11-01T18:57:41.348Z,2.08
2022-11-01T19:00:15.697Z,2.38
2022-11-01T19:02:43.461Z,2.20
2022-11-01T19:05:15.279Z,2.08
2022-11-01T19:08:09.598Z,1.98
2022-11-01T19:10:30.840Z,2.25
2022-11-01T19:12:58.578Z,2.47
2022-11-01T19:15:28.781Z,2.28
2022-11-01T19:17:59.051Z,2.08
2022-11-01T19:20:29.838Z,2.78
2022-11-01T19:22:59.181Z,4.25
2022-11-01T19:25:29.643Z,5.53
2022-11-01T19:27:58.676Z,21.63
2022-11-01T19:30:28.687Z,8.73
2022-11-01T19:32:58.364Z,6.35
2022-11-01T19:35:26.165Z,3.92
2022-11-01T19:37:56.660Z,2.63
2022-11-01T19:40:28.420Z,3.00
2022-11-01T19:42:56.454Z,3.47
2022-11-01T19:47:54.491Z,2.38
2022-11-01T19:50:23.992Z,2.25
2022-11-01T19:52:52.727Z,2.90
2022-11-01T19:55:39.093Z,2.10
2022-11-01T19:58:27.752Z,2.10
2022-11-01T20:01:37.088Z,1.63
2022-11-01T20:04:13.400Z,1.88
2022-11-01T20:06:46.629Z,2.17
2022-11-01T20:09:19.934Z,2.10
2022-11-01T20:11:49.247Z,2.05
2022-11-01T20:14:17.021Z,1.95
2022-11-01T20:16:44.954Z,2.00
2022-11-01T20:19:16.428Z,1.80
2022-11-01T20:21:45.926Z,2.00
2022-11-01T20:24:13.887Z,1.98
2022-11-01T20:26:41.652Z,1.90
2022-11-01T20:29:10.844Z,2.30
2022-11-01T20:31:38.619Z,2.13
2022-11-01T20:34:06.960Z,2.13
2022-11-01T20:36:34.714Z,1.60
2022-11-01T20:39:02.884Z,2.03
2022-11-01T20:41:30.581Z,1.90
2022-11-01T20:43:58.442Z,2.15
2022-11-01T20:46:27.564Z,2.40
2022-11-01T20:48:55.313Z,1.80
2022-11-01T20:51:23.055Z,2.27
2022-11-01T20:53:50.888Z,2.20
2022-11-01T20:56:19.047Z,2.13
2022-11-01T20:58:46.913Z,2.00
2022-11-01T21:01:15.731Z,1.70
2022-11-01T21:03:46.266Z,2.30
2022-11-01T21:06:16.642Z,2.00
2022-11-01T21:08:47.191Z,2.10
2022-11-01T21:11:22.208Z,1.75
2022-11-01T21:13:51.738Z,3.95
2022-11-01T21:16:26.644Z,2.40
2022-11-01T21:19:00.750Z,2.53
2022-11-01T21:21:32.833Z,2.80
2022-11-01T21:24:04.511Z,2.00
2022-11-01T21:26:32.992Z,2.10
2022-11-01T21:29:04.137Z,2.30
2022-11-01T21:31:33.254Z,2.35
2022-11-01T21:34:07.196Z,2.33
2022-11-01T21:36:35.895Z,2.15
2022-11-01T21:39:05.100Z,2.15
2022-11-01T21:41:39.628Z,2.03
2022-11-01T21:44:29.226Z,1.63
2022-11-01T21:46:58.735Z,1.50
2022-11-01T21:49:29.972Z,1.85
2022-11-01T21:52:00.391Z,1.75
2022-11-01T21:54:29.747Z,1.83
2022-11-01T21:56:57.990Z,2.20
2022-11-01T21:59:26.062Z,2.00
2022-11-01T22:01:54.764Z,2.20
2022-11-01T22:04:23.359Z,2.10
2022-11-01T22:06:54.294Z,2.10
2022-11-01T22:09:22.791Z,2.60
2022-11-01T22:11:50.647Z,1.80
2022-11-01T22:14:18.420Z,2.15
2022-11-01T22:16:46.164Z,2.10
2022-11-01T22:19:13.936Z,1.90
2022-11-01T22:21:41.812Z,2.20
2022-11-01T22:24:11.140Z,1.88
2022-11-01T22:26:38.931Z,2.15
2022-11-01T22:29:06.945Z,2.07
2022-11-01T22:31:34.643Z,2.10
2022-11-01T22:34:02.847Z,2.28
2022-11-01T22:36:31.809Z,2.00
2022-11-01T22:39:00.768Z,2.10
2022-11-01T22:41:33.208Z,2.20
2022-11-01T22:44:04.799Z,2.22
2022-11-01T22:46:39.711Z,2.60
2022-11-01T22:49:13.030Z,1.85
2022-11-01T22:51:44.932Z,2.38
2022-11-01T22:54:39.902Z,2.10
2022-11-01T22:57:17.645Z,2.33
2022-11-01T22:59:47.250Z,2.20
2022-11-01T23:02:26.701Z,2.00
2022-11-01T23:05:17.767Z,2.15
2022-11-01T23:07:47.221Z,2.20
2022-11-01T23:10:24.339Z,1.73
2022-11-01T23:13:20.561Z,2.28
2022-11-01T23:15:48.312Z,2.03
2022-11-01T23:18:20.863Z,2.08
2022-11-01T23:20:54.240Z,2.72
2022-11-01T23:23:22.419Z,2.40
2022-11-01T23:25:50.382Z,2.08
2022-11-01T23:28:19.539Z,2.30
2022-11-01T23:30:48.611Z,2.58
2022-11-01T23:33:18.850Z,2.03
2022-11-01T23:35:51.963Z,2.40
2022-11-01T23:38:22.932Z,2.30
2022-11-01T23:40:51.951Z,2.20
2022-11-01T23:43:28.927Z,2.13
2022-11-01T23:45:56.668Z,1.90
2022-11-01T23:48:24.780Z,2.10
2022-11-01T23:50:53.015Z,2.83
2022-11-01T23:53:23.795Z,2.13
2022-11-01T23:55:53.801Z,1.83
2022-11-01T23:58:26.206Z,1.60
